Time;durP1;ratioP1;P1;durP2;ratioP2;P2;SDS_P1;SDS_P2;PMS_P1;PMS_P2;Temp;Humidity;BMP_temperature;BMP_pressure;BME280_temperature;BME280_humidity;BME280_pressure;Samples;Min_cycle;Max_cycle;Signal;HPM_P1;HPM_P2
2022/04/02 00:02:01;;;;;;;11.53;9.13;;;;;;;3.53;63.66;98296.91;4191057;28;20688;-65
2022/04/02 00:04:03;;;;;;;9.53;8.63;;;;;;;2.67;65.35;98357.56;4188949;28;20240;-65
2022/04/02 00:06:05;;;;;;;10.00;8.90;;;;;;;3.00;65.16;98328.16;4190816;28;20255;-64
2022/04/02 00:08:07;;;;;;;10.70;9.33;;;;;;;2.89;65.01;98332.75;4190697;28;20273;-65
2022/04/02 00:10:09;;;;;;;9.47;8.47;;;;;;;3.11;65.13;98315.78;4191295;28;20251;-64
2022/04/02 00:12:11;;;;;;;10.20;9.23;;;;;;;2.91;65.16;98320.31;4193843;28;20253;-65
2022/04/02 00:14:13;;;;;;;10.13;9.07;;;;;;;3.02;65.53;98312.25;4190555;28;20238;-64
2022/04/02 00:16:14;;;;;;;11.53;10.33;;;;;;;2.69;65.47;98332.00;4196505;28;20250;-64
2022/04/02 00:18:16;;;;;;;10.47;9.40;;;;;;;3.46;64.18;98288.78;4192434;28;20738;-65
2022/04/02 00:20:17;;;;;;;9.90;8.90;;;;;;;3.49;63.35;98292.94;4194177;28;20266;-65
2022/04/02 00:22:19;;;;;;;10.13;8.97;;;;;;;2.33;64.61;98316.09;4186935;28;20255;-65
2022/04/02 00:24:21;;;;;;;15.93;9.57;;;;;;;2.68;66.44;98357.44;4191281;28;20261;-65
2022/04/02 00:26:23;;;;;;;10.33;9.30;;;;;;;2.70;65.75;98339.72;4185925;28;20322;-65
2022/04/02 00:28:25;;;;;;;12.03;8.87;;;;;;;2.89;65.70;98322.25;4188645;28;20256;-65
2022/04/02 00:30:27;;;;;;;10.40;9.27;;;;;;;3.32;64.37;98308.50;4192029;28;20693;-65
2022/04/02 00:32:29;;;;;;;10.17;9.17;;;;;;;3.51;64.34;98296.22;4189889;28;20263;-65
2022/04/02 00:34:31;;;;;;;11.97;9.10;;;;;;;2.91;65.57;98326.41;4189149;28;20685;-64
2022/04/02 00:36:37;;;;;;;10.27;9.17;;;;;;;3.52;64.01;98288.19;4189634;28;20664;-65
2022/04/02 00:38:40;;;;;;;11.47;9.47;;;;;;;3.02;65.08;98326.19;4193056;28;20753;-65
2022/04/02 00:40:42;;;;;;;11.43;9.40;;;;;;;3.59;64.06;98283.16;4188581;28;20227;-65
2022/04/02 00:42:45;;;;;;;11.87;9.50;;;;;;;3.38;64.48;98309.69;4192580;28;20231;-64
2022/04/02 00:44:46;;;;;;;13.00;10.03;;;;;;;2.50;66.03;98359.94;4190693;28;20228;-65
2022/04/02 00:46:48;;;;;;;10.07;9.03;;;;;;;3.57;64.05;98283.31;4185846;28;20346;-64
2022/04/02 00:48:50;;;;;;;12.53;9.20;;;;;;;3.60;63.53;98289.25;4194515;28;20240;-65
2022/04/02 00:50:58;;;;;;;10.67;9.37;;;;;;;3.01;64.91;98335.06;4195939;28;20715;-65
2022/04/02 00:53:00;;;;;;;12.47;11.17;;;;;;;3.58;64.31;98289.41;4189108;28;20234;-65
2022/04/02 00:55:02;;;;;;;9.67;8.77;;;;;;;3.45;64.33;98296.81;4185454;28;20231;-64
2022/04/02 00:57:04;;;;;;;11.10;10.00;;;;;;;3.80;63.67;98282.03;4192595;28;20227;-65
2022/04/02 00:59:06;;;;;;;11.20;10.00;;;;;;;3.72;63.45;98294.13;4193354;28;20255;-65
2022/04/02 01:01:08;;;;;;;11.03;9.47;;;;;;;4.05;62.78;98275.16;4193528;28;20240;-65
2022/04/02 01:03:11;;;;;;;11.00;9.90;;;;;;;3.57;63.58;98299.09;4184759;28;20235;-65
2022/04/02 01:05:14;;;;;;;9.83;8.83;;;;;;;3.24;65.07;98333.84;4191438;28;20239;-65
2022/04/02 01:07:17;;;;;;;10.93;9.83;;;;;;;3.27;64.69;98325.69;4189025;28;20267;-65
2022/04/02 01:09:19;;;;;;;11.57;9.20;;;;;;;4.10;62.70;98281.59;4192184;28;20246;-65
2022/04/02 01:11:21;;;;;;;11.47;10.37;;;;;;;3.56;63.65;98302.69;4191969;28;20262;-65
2022/04/02 01:13:23;;;;;;;13.23;9.47;;;;;;;3.48;64.46;98309.66;4184299;28;20308;-66
2022/04/02 01:15:25;;;;;;;12.27;9.40;;;;;;;3.80;63.66;98290.75;4179100;28;20228;-65
2022/04/02 01:17:26;;;;;;;11.07;9.93;;;;;;;3.86;63.04;98289.31;4193377;28;20258;-65
2022/04/02 01:19:28;;;;;;;9.57;8.67;;;;;;;3.89;62.46;98266.19;4196768;28;20271;-65
2022/04/02 01:21:31;;;;;;;11.40;9.17;;;;;;;3.80;63.78;98309.16;4187348;28;20270;-65
2022/04/02 01:23:32;;;;;;;10.13;9.17;;;;;;;3.69;63.39;98317.28;4187212;28;20250;-65
2022/04/02 01:25:35;;;;;;;11.03;9.93;;;;;;;3.23;65.04;98348.78;4185621;28;20666;-65
2022/04/02 01:27:37;;;;;;;10.63;8.83;;;;;;;3.28;64.13;98327.31;4189808;28;20249;-65
2022/04/02 01:29:39;;;;;;;11.23;10.13;;;;;;;3.87;63.23;98298.84;4192865;28;20690;-65
2022/04/02 01:31:44;;;;;;;10.87;9.77;;;;;;;3.12;64.70;98347.16;4196144;28;20286;-65
2022/04/02 01:33:48;;;;;;;11.00;9.53;;;;;;;2.99;65.44;98350.16;4194166;28;20882;-65
2022/04/02 01:36:04;;;;;;;10.13;9.13;;;;;;;2.65;65.56;98362.97;4193020;28;20267;-66
2022/04/02 01:38:06;;;;;;;10.07;9.07;;;;;;;3.44;65.03;98338.03;4192704;28;20259;-65
2022/04/02 01:40:08;;;;;;;11.10;10.00;;;;;;;3.29;65.50;98334.22;4192426;28;20242;-65
2022/04/02 01:42:10;;;;;;;11.70;10.50;;;;;;;3.02;65.50;98360.34;4182206;28;20271;-65
2022/04/02 01:44:11;;;;;;;11.13;9.80;;;;;;;3.54;64.81;98317.78;4191062;28;20342;-65
2022/04/02 01:46:13;;;;;;;11.33;10.00;;;;;;;3.12;65.68;98357.69;4184723;28;20263;-65
2022/04/02 01:48:15;;;;;;;12.00;10.80;;;;;;;3.36;65.48;98324.78;4177823;28;20240;-65
2022/04/02 01:50:23;;;;;;;11.37;10.27;;;;;;;3.07;65.27;98359.91;4192858;28;20231;-65
2022/04/02 01:52:24;;;;;;;11.33;10.13;;;;;;;2.85;66.00;98371.59;4198316;28;20258;-65
2022/04/02 01:54:26;;;;;;;11.03;9.57;;;;;;;3.63;64.23;98305.53;4191583;28;20731;-65
2022/04/02 01:56:28;;;;;;;12.07;10.87;;;;;;;2.59;66.79;98385.34;4192322;28;20347;-65
2022/04/02 01:58:29;;;;;;;11.57;9.00;;;;;;;3.68;64.75;98307.72;4191178;28;20227;-65
2022/04/02 02:00:31;;;;;;;10.70;9.60;;;;;;;3.55;64.37;98314.19;4189849;28;20254;-65
2022/04/02 02:02:33;;;;;;;10.80;9.70;;;;;;;3.63;63.98;98320.50;4187668;28;20227;-65
2022/04/02 02:04:36;;;;;;;11.00;9.90;;;;;;;4.46;62.02;98276.28;4192195;28;20219;-65
2022/04/02 02:06:39;;;;;;;12.47;10.20;;;;;;;3.63;64.55;98342.34;4190897;28;20754;-65
2022/04/02 02:08:40;;;;;;;11.43;10.23;;;;;;;3.62;64.66;98339.84;4190191;28;20247;-65
2022/04/02 02:10:42;;;;;;;10.10;9.10;;;;;;;3.71;64.48;98338.97;4188122;28;20313;-65
2022/04/02 02:12:44;;;;;;;13.30;11.67;;;;;;;3.73;64.16;98318.63;4188684;28;20242;-65
2022/04/02 02:14:46;;;;;;;10.43;9.33;;;;;;;3.50;64.57;98332.22;4190250;28;20229;-65
2022/04/02 02:16:48;;;;;;;11.43;9.93;;;;;;;3.41;64.60;98359.31;4192175;28;20246;-65
2022/04/02 02:18:51;;;;;;;10.73;9.63;;;;;;;4.13;63.14;98306.78;4192029;28;20836;-65
2022/04/02 02:20:53;;;;;;;9.93;8.93;;;;;;;3.14;65.27;98354.91;4191943;28;20266;-65
2022/04/02 02:22:54;;;;;;;11.70;10.50;;;;;;;3.05;65.68;98385.50;4183687;28;20263;-65
2022/04/02 02:24:56;;;;;;;10.90;9.80;;;;;;;3.78;63.91;98326.06;4184702;28;20256;-65
2022/04/02 02:26:58;;;;;;;10.73;9.73;;;;;;;3.29;64.58;98376.28;4187559;28;20728;-65
2022/04/02 02:28:59;;;;;;;12.00;10.80;;;;;;;3.59;64.05;98341.00;4189279;28;20608;-65
2022/04/02 02:31:01;;;;;;;10.90;9.70;;;;;;;3.65;64.62;98334.31;4189023;28;20264;-65
2022/04/02 02:37:50;;;;;;;10.17;9.17;;;;;;;3.33;64.32;98377.63;4191762;28;20235;-65
2022/04/02 02:39:52;;;;;;;11.60;10.50;;;;;;;3.51;64.49;98369.81;4190765;28;20251;-65
2022/04/02 02:41:54;;;;;;;11.67;9.73;;;;;;;3.72;64.62;98346.72;4190464;28;20278;-65
2022/04/02 02:43:55;;;;;;;9.60;8.70;;;;;;;3.35;64.85;98352.88;4192766;28;20259;-65
2022/04/02 02:45:57;;;;;;;10.50;8.97;;;;;;;2.47;68.06;98410.09;4182890;28;20232;-65
2022/04/02 02:47:59;;;;;;;10.57;9.57;;;;;;;3.12;66.44;98356.84;4190374;28;20239;-65
2022/04/02 02:50:07;;;;;;;9.90;9.00;;;;;;;2.87;66.48;98377.53;4191872;28;20239;-65
2022/04/02 02:52:09;;;;;;;9.67;8.70;;;;;;;3.20;65.78;98359.59;4190951;28;20257;-65
2022/04/02 02:54:10;;;;;;;9.93;8.93;;;;;;;2.77;66.90;98379.38;4191470;28;20897;-65
2022/04/02 02:56:12;;;;;;;9.97;8.90;;;;;;;3.14;66.00;98358.34;4191642;28;20235;-65
2022/04/02 02:58:14;;;;;;;10.47;9.47;;;;;;;3.12;65.36;98362.09;4190658;28;20688;-65
2022/04/02 03:00:17;;;;;;;9.13;8.23;;;;;;;3.07;66.05;98367.78;4198320;28;20238;-65
2022/04/02 03:02:18;;;;;;;10.23;9.23;;;;;;;3.18;65.69;98366.78;4184506;28;20270;-65
2022/04/02 03:04:21;;;;;;;9.50;8.60;;;;;;;2.98;65.81;98387.06;4191182;28;20673;-65
2022/04/02 03:06:22;;;;;;;8.97;8.13;;;;;;;3.24;65.29;98368.00;4191616;28;20259;-65
2022/04/02 03:08:24;;;;;;;10.10;9.10;;;;;;;2.05;66.89;98387.63;4189971;28;20289;-65
2022/04/02 03:10:28;;;;;;;10.00;9.00;;;;;;;3.06;65.18;98381.06;4185776;28;20223;-65
2022/04/02 03:12:30;;;;;;;10.30;9.03;;;;;;;3.78;64.17;98345.28;4190799;28;20266;-65
2022/04/02 03:14:32;;;;;;;9.70;8.73;;;;;;;2.63;66.74;98423.47;4191323;28;20250;-65
2022/04/02 03:16:33;;;;;;;9.50;8.50;;;;;;;3.11;65.11;98386.72;4191629;28;20262;-65
2022/04/02 03:18:35;;;;;;;9.40;8.30;;;;;;;3.07;65.64;98399.31;4190856;28;20226;-65
2022/04/02 03:20:37;;;;;;;9.43;8.53;;;;;;;3.61;64.51;98362.69;4191868;28;20250;-65
2022/04/02 03:22:40;;;;;;;8.97;8.07;;;;;;;3.94;63.86;98360.41;4191382;28;20239;-65
2022/04/02 03:24:42;;;;;;;8.93;8.03;;;;;;;3.77;63.70;98345.44;4184916;28;20284;-65
2022/04/02 03:26:44;;;;;;;9.80;8.80;;;;;;;3.64;64.52;98364.22;4183411;28;20223;-65
2022/04/02 03:28:46;;;;;;;10.43;8.57;;;;;;;2.87;64.85;98382.78;4191459;28;20267;-66
2022/04/02 03:30:48;;;;;;;8.97;8.07;;;;;;;3.74;63.84;98350.03;4189206;28;20278;-66
2022/04/02 03:32:51;;;;;;;9.30;8.23;;;;;;;3.84;62.88;98333.34;4190801;28;20263;-65
2022/04/02 03:34:53;;;;;;;8.70;7.80;;;;;;;3.08;65.82;98398.34;4191401;28;20259;-65
2022/04/02 03:36:55;;;;;;;8.53;7.00;;;;;;;2.71;66.24;98433.28;4189175;28;20266;-65
2022/04/02 03:38:56;;;;;;;9.47;8.47;;;;;;;2.96;65.88;98405.56;4190718;28;20262;-65
2022/04/02 03:40:58;;;;;;;9.33;8.43;;;;;;;2.82;65.92;98403.38;4191552;28;20258;-65
2022/04/02 03:43:00;;;;;;;9.13;8.20;;;;;;;3.02;66.01;98407.59;4190349;28;20288;-65
2022/04/02 03:45:04;;;;;;;8.90;7.73;;;;;;;2.99;65.62;98407.91;4191430;28;20261;-65
2022/04/02 03:47:08;;;;;;;8.03;7.20;;;;;;;2.78;66.34;98430.91;4190745;28;20231;-65
2022/04/02 03:49:13;;;;;;;9.30;8.33;;;;;;;3.07;65.94;98398.50;4179820;28;20236;-65
2022/04/02 03:51:15;;;;;;;9.13;7.73;;;;;;;3.35;64.83;98370.44;4194106;28;20242;-66
2022/04/02 03:53:20;;;;;;;11.80;7.77;;;;;;;3.03;65.55;98405.81;4198927;28;20288;-65
2022/04/02 03:55:22;;;;;;;9.50;7.70;;;;;;;3.17;64.57;98401.91;4186686;28;20258;-65
2022/04/02 03:57:24;;;;;;;9.83;7.70;;;;;;;4.12;62.88;98363.00;4193721;28;20254;-66
2022/04/02 03:59:25;;;;;;;10.47;8.50;;;;;;;2.61;66.31;98448.19;4194445;28;20314;-65
2022/04/02 04:01:27;;;;;;;8.23;7.43;;;;;;;3.03;65.90;98421.59;4192789;28;20603;-65
2022/04/02 04:03:29;;;;;;;9.00;8.10;;;;;;;3.79;63.50;98367.16;4187642;28;20712;-65
2022/04/02 04:05:30;;;;;;;8.17;7.37;;;;;;;3.66;63.71;98378.84;4194730;28;20223;-65
2022/04/02 04:07:32;;;;;;;9.10;8.20;;;;;;;3.14;64.48;98405.63;4193917;28;20314;-65
2022/04/02 04:09:36;;;;;;;9.73;8.13;;;;;;;3.19;64.06;98410.47;4192287;28;20227;-65
2022/04/02 04:11:38;;;;;;;8.67;7.83;;;;;;;3.10;64.09;98413.97;4186629;28;20265;-65
2022/04/02 04:13:40;;;;;;;9.57;8.43;;;;;;;3.11;65.20;98434.84;4192762;28;20269;-65
2022/04/02 04:15:42;;;;;;;9.97;8.40;;;;;;;2.63;66.56;98444.47;4193636;28;20274;-65
2022/04/02 04:17:44;;;;;;;9.37;7.63;;;;;;;2.96;65.30;98423.09;4193924;28;20723;-65
2022/04/02 04:19:47;;;;;;;9.60;7.90;;;;;;;2.86;66.18;98435.44;4190029;28;20263;-65
2022/04/02 04:21:49;;;;;;;8.23;7.43;;;;;;;3.24;64.83;98405.59;4195485;28;20661;-65
2022/04/02 04:23:51;;;;;;;8.37;7.57;;;;;;;3.14;65.21;98431.91;4191170;28;20239;-65
2022/04/02 04:25:53;;;;;;;7.53;6.73;;;;;;;2.57;66.07;98462.56;4184715;28;20236;-65
2022/04/02 04:27:54;;;;;;;9.17;8.27;;;;;;;3.25;64.82;98415.16;4192187;28;20319;-65
2022/04/02 04:29:56;;;;;;;10.00;8.17;;;;;;;3.45;63.86;98412.44;4192960;28;20255;-65
2022/04/02 04:31:58;;;;;;;8.67;7.87;;;;;;;3.52;63.00;98400.41;4192379;28;20292;-65
2022/04/02 04:33:59;;;;;;;11.37;7.67;;;;;;;3.26;64.28;98436.97;4191685;28;20235;-65
2022/04/02 04:36:02;;;;;;;7.53;6.83;;;;;;;3.57;63.98;98417.38;4189029;28;20257;-65
2022/04/02 04:38:03;;;;;;;9.20;7.27;;;;;;;3.49;63.46;98422.53;4188269;28;20250;-65
2022/04/02 04:40:05;;;;;;;8.70;7.83;;;;;;;3.31;63.68;98437.38;4192884;28;20262;-65
2022/04/02 04:42:07;;;;;;;7.63;6.93;;;;;;;3.11;65.23;98455.84;4191547;28;20266;-65
2022/04/02 04:44:09;;;;;;;7.53;6.83;;;;;;;3.36;64.49;98437.75;4189966;28;20259;-65
2022/04/02 04:46:11;;;;;;;7.90;7.10;;;;;;;3.00;65.44;98466.50;4186081;28;20247;-65
2022/04/02 04:48:12;;;;;;;7.93;6.97;;;;;;;2.87;66.07;98455.47;4192773;28;20751;-65
2022/04/02 04:50:14;;;;;;;8.33;7.07;;;;;;;2.92;65.37;98461.13;4192808;28;20317;-65
2022/04/02 04:52:16;;;;;;;8.80;7.90;;;;;;;2.43;66.12;98492.66;4187266;28;20235;-65
2022/04/02 04:54:18;;;;;;;8.97;7.57;;;;;;;3.28;64.59;98437.66;4191981;28;20270;-65
2022/04/02 04:56:20;;;;;;;8.77;7.87;;;;;;;3.25;64.96;98454.56;4191471;28;20298;-65
2022/04/02 04:58:22;;;;;;;7.93;7.13;;;;;;;3.45;63.57;98443.97;4193332;28;20235;-65
2022/04/02 05:00:23;;;;;;;8.13;7.33;;;;;;;3.01;65.26;98478.69;4192981;28;20255;-65
2022/04/02 05:02:25;;;;;;;8.40;7.60;;;;;;;2.92;65.14;98469.84;4192026;28;20251;-65
2022/04/02 05:04:26;;;;;;;8.20;7.40;;;;;;;2.38;66.67;98524.56;4192218;28;20925;-65
2022/04/02 05:06:28;;;;;;;11.17;7.60;;;;;;;2.58;66.83;98511.47;4191996;28;20350;-65
2022/04/02 05:08:32;;;;;;;8.37;7.57;;;;;;;2.90;65.72;98482.28;4190742;28;20496;-65
2022/04/02 05:10:34;;;;;;;8.07;6.90;;;;;;;3.17;64.74;98457.06;4190409;28;20255;-66
2022/04/02 05:12:37;;;;;;;8.20;7.37;;;;;;;2.63;65.64;98514.50;4187227;28;20302;-65
2022/04/02 05:14:39;;;;;;;8.57;7.77;;;;;;;2.73;66.31;98507.44;4186936;28;20227;-64
2022/04/02 05:16:41;;;;;;;8.27;7.47;;;;;;;3.07;65.73;98472.03;4189187;28;20318;-65
2022/04/02 05:18:44;;;;;;;8.50;7.60;;;;;;;2.90;65.29;98487.53;4187848;28;20265;-66
2022/04/02 05:20:46;;;;;;;8.40;7.60;;;;;;;2.58;66.17;98527.19;4187036;28;20593;-65
2022/04/02 05:22:48;;;;;;;9.10;7.70;;;;;;;2.63;66.02;98527.63;4189033;28;20866;-66
2022/04/02 05:24:50;;;;;;;8.40;7.50;;;;;;;1.78;68.22;98556.03;4187554;28;20325;-65
2022/04/02 05:26:51;;;;;;;7.63;6.93;;;;;;;2.49;66.89;98510.50;4182319;28;20259;-65
2022/04/02 05:28:54;;;;;;;8.73;7.90;;;;;;;3.03;65.19;98479.34;4190923;28;20258;-65
2022/04/02 05:30:55;;;;;;;9.23;8.27;;;;;;;1.96;67.34;98537.84;4193424;28;20744;-64
2022/04/02 05:32:57;;;;;;;12.93;7.50;;;;;;;2.48;66.83;98529.00;4195954;28;20245;-65
2022/04/02 05:34:59;;;;;;;8.13;7.33;;;;;;;1.73;69.10;98565.22;4185407;28;20259;-64
2022/04/02 05:37:01;;;;;;;10.70;8.07;;;;;;;2.63;67.38;98504.81;4192681;28;20266;-64
2022/04/02 05:39:03;;;;;;;7.83;7.07;;;;;;;2.32;66.83;98537.38;4191968;28;20258;-64
2022/04/02 05:41:04;;;;;;;9.00;7.50;;;;;;;2.00;67.61;98548.91;4187567;28;20734;-65
2022/04/02 05:43:06;;;;;;;8.73;7.83;;;;;;;2.57;65.64;98518.50;4182465;28;20273;-64
2022/04/02 05:45:09;;;;;;;16.23;7.47;;;;;;;2.79;66.18;98525.28;4188048;28;20277;-65
2022/04/02 05:47:10;;;;;;;8.70;7.60;;;;;;;2.58;66.58;98542.94;4183250;28;20252;-67
2022/04/02 05:49:17;;;;;;;7.23;6.53;;;;;;;2.23;67.58;98560.00;4187015;28;20243;-65
2022/04/02 05:51:19;;;;;;;10.07;7.50;;;;;;;3.09;65.57;98502.41;4192429;28;20309;-64
2022/04/02 05:53:20;;;;;;;8.13;7.10;;;;;;;2.66;66.26;98547.50;4187382;28;20274;-64
2022/04/02 05:55:22;;;;;;;8.03;7.23;;;;;;;2.77;65.85;98527.19;4191821;28;20255;-65
2022/04/02 05:57:23;;;;;;;9.63;8.10;;;;;;;2.45;66.46;98565.03;4198546;28;20246;-65
2022/04/02 05:59:25;;;;;;;7.73;6.97;;;;;;;2.09;67.81;98597.94;4192151;28;20254;-64
2022/04/02 06:01:27;;;;;;;8.00;7.20;;;;;;;3.34;65.29;98511.47;4192069;28;20578;-65
2022/04/02 06:03:29;;;;;;;9.13;7.87;;;;;;;2.53;66.35;98574.84;4190845;28;20231;-66
2022/04/02 06:05:31;;;;;;;8.10;7.27;;;;;;;2.67;66.03;98557.03;4191468;28;20266;-65
2022/04/02 06:07:33;;;;;;;8.90;7.73;;;;;;;3.00;65.66;98534.78;4191171;28;20783;-65
2022/04/02 06:09:35;;;;;;;9.43;8.27;;;;;;;2.37;66.57;98591.13;4191733;28;20258;-64
2022/04/02 06:11:38;;;;;;;9.07;7.37;;;;;;;1.67;67.31;98590.16;4183841;28;20261;-66
2022/04/02 06:13:39;;;;;;;8.63;7.83;;;;;;;2.24;67.68;98587.91;4193290;28;20379;-64
2022/04/02 06:15:41;;;;;;;9.20;7.70;;;;;;;1.93;67.07;98593.19;4187730;28;20231;-64
2022/04/02 06:17:42;;;;;;;10.73;8.50;;;;;;;2.53;66.14;98560.91;4191352;28;20319;-64
2022/04/02 06:19:44;;;;;;;11.07;8.13;;;;;;;2.50;66.64;98569.88;4191606;28;20243;-64
2022/04/02 06:21:46;;;;;;;8.57;7.67;;;;;;;2.16;67.03;98600.88;4192084;28;20531;-64
2022/04/02 06:23:47;;;;;;;8.13;7.33;;;;;;;3.01;65.75;98546.97;4188886;28;20231;-65
2022/04/02 06:25:50;;;;;;;8.83;7.90;;;;;;;2.77;65.56;98565.75;4181945;28;20274;-64
2022/04/02 06:27:54;;;;;;;7.80;6.67;;;;;;;2.56;65.81;98594.75;4189537;28;20235;-65
2022/04/02 06:29:57;;;;;;;7.33;6.63;;;;;;;2.93;64.77;98571.28;4191924;28;20338;-64
2022/04/02 06:31:59;;;;;;;10.47;7.33;;;;;;;2.75;65.15;98578.19;4191276;28;20247;-64
2022/04/02 06:34:00;;;;;;;10.47;7.63;;;;;;;2.73;65.34;98580.94;4189283;28;20629;-64
2022/04/02 06:36:02;;;;;;;8.57;7.23;;;;;;;2.36;66.16;98615.69;4191625;28;20227;-64
2022/04/02 06:38:04;;;;;;;9.03;7.10;;;;;;;2.75;65.09;98583.44;4191049;28;20353;-67
2022/04/02 06:40:09;;;;;;;8.20;7.30;;;;;;;2.68;65.54;98585.78;4191368;28;20631;-64
2022/04/02 06:42:12;;;;;;;9.97;7.07;;;;;;;2.70;65.11;98601.38;4183797;28;20926;-65
2022/04/02 06:44:14;;;;;;;7.20;6.50;;;;;;;2.32;66.44;98635.28;4190200;28;20242;-64
2022/04/02 06:46:16;;;;;;;8.20;7.40;;;;;;;1.72;66.86;98637.78;4183092;28;20260;-65
2022/04/02 06:48:17;;;;;;;8.73;7.93;;;;;;;1.89;68.26;98652.91;4192022;28;20279;-64
2022/04/02 06:50:19;;;;;;;8.30;7.50;;;;;;;2.12;67.81;98621.28;4183781;28;20319;-65
2022/04/02 06:52:22;;;;;;;9.37;8.37;;;;;;;2.17;67.26;98647.13;4191178;28;20239;-65
2022/04/02 06:54:23;;;;;;;7.73;7.03;;;;;;;2.74;65.78;98601.00;4189450;28;20262;-65
2022/04/02 06:56:25;;;;;;;8.37;6.83;;;;;;;2.14;66.35;98658.69;4191500;28;20233;-64
2022/04/02 06:58:31;;;;;;;9.30;7.60;;;;;;;2.54;66.36;98628.16;4191352;28;20238;-64
2022/04/02 07:00:33;;;;;;;8.80;7.57;;;;;;;2.41;65.63;98655.47;4180623;28;20247;-65
2022/04/02 07:02:34;;;;;;;9.37;8.47;;;;;;;2.25;66.60;98649.88;4186770;28;20654;-67
2022/04/02 07:04:36;;;;;;;9.53;7.57;;;;;;;2.44;66.92;98649.97;4190467;28;20230;-65
2022/04/02 07:06:44;;;;;;;8.87;6.93;;;;;;;2.71;66.16;98627.50;4195014;28;20888;-65
2022/04/02 07:08:45;;;;;;;9.30;8.30;;;;;;;2.95;65.52;98610.53;4191171;28;20319;-65
2022/04/02 07:10:47;;;;;;;9.27;7.27;;;;;;;2.59;66.45;98641.72;4191288;28;20242;-65
2022/04/02 07:12:48;;;;;;;10.20;8.47;;;;;;;2.50;66.78;98664.31;4190159;28;20266;-65
2022/04/02 07:14:50;;;;;;;9.63;8.73;;;;;;;2.89;65.70;98625.03;4191348;28;20233;-65
2022/04/02 07:16:52;;;;;;;9.63;8.63;;;;;;;3.01;65.89;98631.00;4189440;28;20702;-65
2022/04/02 07:18:55;;;;;;;9.10;8.20;;;;;;;2.77;65.85;98636.63;4191216;28;20309;-64
2022/04/02 07:21:00;;;;;;;11.80;8.83;;;;;;;3.05;65.46;98635.00;4193252;28;20838;-65
2022/04/02 07:23:03;;;;;;;9.70;8.40;;;;;;;2.77;66.00;98650.56;4191958;28;20280;-64
2022/04/02 07:25:06;;;;;;;9.50;8.50;;;;;;;2.38;65.45;98654.91;4195102;28;20269;-65
2022/04/02 07:27:07;;;;;;;9.43;8.37;;;;;;;2.67;66.33;98659.41;4182893;28;20263;-64
2022/04/02 07:29:09;;;;;;;9.40;8.43;;;;;;;1.91;66.52;98681.63;4185488;28;20258;-64
2022/04/02 07:31:11;;;;;;;9.50;8.37;;;;;;;2.45;65.92;98675.25;4194347;28;20242;-67
2022/04/02 07:33:13;;;;;;;9.37;8.17;;;;;;;2.02;67.28;98699.91;4193225;28;20235;-65
2022/04/02 07:35:15;;;;;;;11.03;8.37;;;;;;;2.06;66.69;98682.09;4194865;28;20235;-64
2022/04/02 07:37:52;;;;;;;8.50;7.57;;;;;;;2.61;66.62;98668.66;4193601;28;20235;-65
2022/04/02 07:40:24;;;;;;;9.13;8.23;;;;;;;2.35;66.85;98707.63;4194067;28;20266;-65
2022/04/02 07:42:36;;;;;;;9.77;8.30;;;;;;;2.45;66.54;98698.00;4185133;28;20267;-65
2022/04/02 07:44:45;;;;;;;9.43;8.53;;;;;;;2.70;66.50;98682.75;4193148;28;20777;-65
2022/04/02 07:46:48;;;;;;;11.63;9.40;;;;;;;2.24;67.11;98743.50;4186915;28;20230;-64
2022/04/02 07:48:50;;;;;;;11.57;9.07;;;;;;;3.33;64.95;98666.63;4194112;28;20915;-64
2022/04/02 07:50:53;;;;;;;10.73;9.30;;;;;;;2.60;66.82;98711.59;4196557;28;20750;-64
2022/04/02 07:52:55;;;;;;;9.43;8.53;;;;;;;3.22;65.56;98680.75;4192820;28;20258;-65
2022/04/02 07:55:00;;;;;;;10.57;7.80;;;;;;;2.73;65.72;98675.44;4184731;28;20610;-65
2022/04/02 07:57:03;;;;;;;10.33;8.40;;;;;;;3.01;65.63;98684.34;4186183;28;20295;-65
2022/04/02 07:59:11;;;;;;;9.00;8.10;;;;;;;2.52;66.03;98729.78;4194098;28;20653;-65
2022/04/02 08:01:16;;;;;;;8.90;7.80;;;;;;;2.53;66.58;98729.66;4185418;28;20254;-66
2022/04/02 08:03:20;;;;;;;10.23;9.20;;;;;;;2.98;65.92;98712.66;4191756;28;20258;-66
2022/04/02 08:05:22;;;;;;;9.40;8.47;;;;;;;2.58;67.11;98735.34;4194184;28;20314;-64
2022/04/02 08:07:24;;;;;;;9.90;8.87;;;;;;;2.08;66.47;98743.13;4182109;28;20246;-65
2022/04/02 08:09:26;;;;;;;9.17;7.63;;;;;;;2.66;66.04;98721.56;4193590;28;20783;-65
2022/04/02 08:11:29;;;;;;;9.63;8.63;;;;;;;2.82;65.90;98726.31;4193807;28;20254;-65
2022/04/02 08:13:32;;;;;;;10.33;8.97;;;;;;;3.12;65.37;98711.44;4192473;28;20255;-65
2022/04/02 08:15:34;;;;;;;9.70;8.53;;;;;;;2.97;65.35;98727.56;4189724;28;20228;-65
2022/04/02 08:17:41;;;;;;;9.43;8.30;;;;;;;2.66;65.69;98742.56;4195801;28;20582;-68
2022/04/02 08:19:44;;;;;;;9.43;7.90;;;;;;;2.23;67.20;98765.44;4187800;28;20946;-65
2022/04/02 08:21:45;;;;;;;10.40;8.77;;;;;;;2.42;66.83;98756.84;4193079;28;20270;-65
2022/04/02 08:23:47;;;;;;;9.60;8.60;;;;;;;2.44;66.87;98772.47;4194960;28;20227;-65
2022/04/02 08:26:12;;;;;;;8.97;7.20;;;;;;;2.58;66.71;98739.78;4184486;28;20784;-66
2022/04/02 08:28:25;;;;;;;10.23;9.10;;;;;;;3.04;65.93;98746.25;4185112;28;20276;-65
2022/04/02 08:30:48;;;;;;;13.60;7.70;;;;;;;2.84;66.12;98766.38;4192373;28;20782;-66
2022/04/02 08:32:50;;;;;;;9.13;8.20;;;;;;;3.89;64.32;98739.53;4188479;28;20258;-66
2022/04/02 08:35:04;;;;;;;8.60;7.73;;;;;;;3.14;64.75;98720.81;4193081;28;20282;-66
2022/04/02 08:37:25;;;;;;;11.87;7.93;;;;;;;2.71;65.82;98752.69;4194826;28;20255;-66
2022/04/02 08:39:54;;;;;;;10.47;8.10;;;;;;;3.48;64.67;98736.25;4185381;28;20238;-65
2022/04/02 08:42:33;;;;;;;9.17;8.17;;;;;;;2.44;66.75;98798.69;4182469;28;20280;-65
2022/04/02 08:44:50;;;;;;;8.90;7.97;;;;;;;2.72;65.83;98773.53;4191397;28;20222;-66
2022/04/02 08:47:29;;;;;;;11.47;7.60;;;;;;;3.09;65.08;98753.72;4194511;28;20317;-65
2022/04/02 08:49:42;;;;;;;8.83;7.93;;;;;;;3.02;65.68;98777.06;4187648;28;20230;-66
2022/04/02 08:51:47;;;;;;;9.47;8.47;;;;;;;2.81;66.06;98796.38;4193822;28;20246;-65
2022/04/02 08:54:14;;;;;;;13.20;8.07;;;;;;;2.58;66.48;98811.47;4189490;28;20235;-65
2022/04/02 08:56:22;;;;;;;9.30;8.30;;;;;;;3.17;64.84;98764.41;4185383;28;20255;-65
2022/04/02 08:58:34;;;;;;;11.40;7.90;;;;;;;3.63;64.65;98791.84;4193495;28;20242;-65
2022/04/02 09:00:45;;;;;;;10.00;8.73;;;;;;;2.96;64.73;98791.59;4193565;28;20257;-65
2022/04/02 09:03:35;;;;;;;11.00;8.47;;;;;;;2.95;65.72;98804.84;4191287;28;20654;-64
2022/04/02 09:06:25;;;;;;;8.50;7.57;;;;;;;3.27;65.57;98803.84;4193433;28;20224;-65
2022/04/02 09:09:05;;;;;;;10.33;8.50;;;;;;;3.16;64.81;98789.00;4165562;28;20271;-65
2022/04/02 09:11:24;;;;;;;11.73;7.67;;;;;;;2.80;65.80;98833.25;4169824;28;20252;-65
2022/04/02 09:13:56;;;;;;;11.80;9.23;;;;;;;3.08;65.17;98805.44;4186095;28;20241;-65
2022/04/02 09:16:04;;;;;;;9.97;8.80;;;;;;;2.94;65.85;98834.69;4191249;28;20316;-65
2022/04/02 09:18:49;;;;;;;9.27;8.23;;;;;;;3.03;65.58;98828.66;4192201;28;20306;-65
2022/04/02 09:21:00;;;;;;;14.30;8.70;;;;;;;2.91;65.56;98845.44;4180331;28;20251;-65
2022/04/02 09:23:23;;;;;;;10.27;8.63;;;;;;;3.03;65.62;98839.16;4188920;28;20712;-64
2022/04/02 09:25:34;;;;;;;9.77;8.47;;;;;;;2.95;65.70;98842.44;4188672;28;20230;-65
2022/04/02 09:27:50;;;;;;;11.07;9.07;;;;;;;2.92;65.82;98832.19;4187704;28;20273;-65
2022/04/02 09:30:27;;;;;;;10.13;9.00;;;;;;;3.38;65.41;98825.56;4193006;28;20277;-65
2022/04/02 09:33:04;;;;;;;10.73;7.80;;;;;;;3.07;64.90;98816.91;4172537;28;20270;-70
2022/04/02 09:35:34;;;;;;;11.13;9.07;;;;;;;3.51;64.56;98822.69;4128470;28;20839;-64
2022/04/02 09:38:05;;;;;;;10.50;7.93;;;;;;;2.53;65.51;98860.06;4178423;28;20227;-64
2022/04/02 09:40:09;;;;;;;9.60;8.53;;;;;;;3.29;64.98;98807.16;4192060;28;20610;-65
2022/04/02 09:42:23;;;;;;;9.07;8.17;;;;;;;3.37;65.41;98831.78;4190921;28;20251;-65
2022/04/02 09:44:40;;;;;;;9.70;7.93;;;;;;;3.19;65.02;98831.59;4189006;28;20254;-65
2022/04/02 09:46:41;;;;;;;11.70;8.53;;;;;;;3.71;64.02;98831.44;4190224;28;20625;-64
2022/04/02 09:49:08;;;;;;;8.53;7.70;;;;;;;3.89;63.89;98826.34;4191831;28;20673;-65
2022/04/02 09:51:14;;;;;;;9.70;8.70;;;;;;;3.13;65.10;98868.09;4181712;28;20258;-64
2022/04/02 09:53:21;;;;;;;9.13;8.13;;;;;;;3.41;64.91;98821.00;4190465;28;20660;-65
2022/04/02 09:55:29;;;;;;;9.73;7.43;;;;;;;3.34;64.98;98847.81;4191459;28;20254;-68
2022/04/02 09:57:45;;;;;;;8.63;7.43;;;;;;;3.33;65.05;98840.06;4188072;28;20226;-64